createdAt,value
2023-11-07T00:01:51.815Z,12.19
2023-11-07T00:04:04.166Z,12.19
2023-11-07T00:06:14.438Z,12.19
2023-11-07T00:08:24.961Z,12.19
2023-11-07T00:10:35.177Z,12.19
2023-11-07T00:12:44.778Z,12.20
2023-11-07T00:14:54.537Z,12.21
2023-11-07T00:17:04.306Z,12.22
2023-11-07T00:19:14.146Z,12.23
2023-11-07T00:21:24.111Z,12.26
2023-11-07T00:23:33.669Z,12.27
2023-11-07T00:25:43.371Z,12.28
2023-11-07T00:27:52.962Z,12.29
2023-11-07T00:30:02.781Z,12.30
2023-11-07T00:32:12.975Z,12.33
2023-11-07T00:34:23.319Z,12.34
2023-11-07T00:36:33.936Z,12.34
2023-11-07T00:38:44.101Z,12.35
2023-11-07T00:40:54.042Z,12.36
2023-11-07T00:43:03.934Z,12.37
2023-11-07T00:45:14.281Z,12.37
2023-11-07T00:47:23.989Z,12.37
2023-11-07T00:49:33.745Z,12.36
2023-11-07T00:51:43.446Z,12.36
2023-11-07T00:53:53.119Z,12.36
2023-11-07T00:56:02.702Z,12.34
2023-11-07T00:58:12.291Z,12.33
2023-11-07T01:00:22.721Z,12.31
2023-11-07T01:02:32.253Z,12.30
2023-11-07T01:04:42.462Z,12.28
2023-11-07T01:06:52.455Z,12.27
2023-11-07T01:09:05.481Z,12.25
2023-11-07T01:11:15.472Z,12.23
2023-11-07T01:13:25.264Z,12.22
2023-11-07T01:15:35.012Z,12.20
2023-11-07T01:17:44.990Z,12.19
2023-11-07T01:19:55.358Z,12.19
2023-11-07T01:22:05.674Z,12.20
2023-11-07T01:24:15.625Z,12.20
2023-11-07T01:26:26.640Z,12.21
2023-11-07T01:28:36.671Z,12.20
2023-11-07T01:30:48.513Z,12.21
2023-11-07T01:32:59.130Z,12.20
2023-11-07T01:35:10.968Z,12.20
2023-11-07T01:37:20.603Z,12.20
2023-11-07T01:39:30.480Z,12.20
2023-11-07T01:41:40.914Z,12.21
2023-11-07T01:43:51.769Z,12.21
2023-11-07T01:46:04.429Z,12.22
2023-11-07T01:48:19.973Z,12.23
2023-11-07T01:50:29.843Z,12.23
2023-11-07T01:52:40.171Z,12.23
2023-11-07T01:54:52.941Z,12.23
2023-11-07T01:57:03.439Z,12.23
2023-11-07T01:59:13.394Z,12.24
2023-11-07T02:01:23.370Z,12.24
2023-11-07T02:03:34.097Z,12.23
2023-11-07T02:05:45.956Z,12.23
2023-11-07T02:07:53.810Z,12.23
2023-11-07T02:10:04.493Z,12.22
2023-11-07T02:12:14.419Z,12.21
2023-11-07T02:14:35.612Z,12.20
2023-11-07T02:16:46.144Z,12.17
2023-11-07T02:18:55.729Z,12.16
2023-11-07T02:21:06.069Z,12.14
2023-11-07T02:23:21.078Z,12.13
2023-11-07T02:25:31.536Z,12.12
2023-11-07T02:27:41.714Z,12.12
2023-11-07T02:29:52.054Z,12.12
2023-11-07T02:32:02.049Z,12.11
2023-11-07T02:34:12.710Z,12.09
2023-11-07T02:36:22.710Z,12.08
2023-11-07T02:38:32.547Z,12.06
2023-11-07T02:40:42.984Z,12.03
2023-11-07T02:42:53.004Z,12.00
2023-11-07T02:45:02.887Z,11.97
2023-11-07T02:47:12.901Z,11.94
2023-11-07T02:49:23.023Z,11.92
2023-11-07T02:51:33.044Z,11.91
2023-11-07T02:53:42.408Z,11.90
2023-11-07T02:55:52.498Z,11.90
2023-11-07T02:58:02.227Z,11.90
2023-11-07T03:00:14.682Z,11.90
2023-11-07T03:02:25.987Z,11.91
2023-11-07T03:04:35.866Z,11.92
2023-11-07T03:06:45.881Z,11.92
2023-11-07T03:08:56.964Z,11.93
2023-11-07T03:11:07.944Z,11.92
2023-11-07T03:13:19.715Z,11.95
2023-11-07T03:15:29.225Z,11.95
2023-11-07T03:17:38.727Z,11.95
2023-11-07T03:19:53.322Z,11.97
2023-11-07T03:22:03.157Z,11.97
2023-11-07T03:24:13.769Z,11.98
2023-11-07T03:26:23.271Z,11.99
2023-11-07T03:28:33.413Z,12.00
2023-11-07T03:30:43.490Z,12.01
2023-11-07T03:32:53.092Z,12.03
2023-11-07T03:35:03.512Z,12.03
2023-11-07T03:37:12.969Z,12.03
2023-11-07T03:39:23.030Z,12.04
2023-11-07T03:41:33.432Z,12.05
2023-11-07T03:43:43.399Z,12.07
2023-11-07T03:45:52.787Z,12.08
2023-11-07T03:48:02.815Z,12.08
2023-11-07T03:50:13.997Z,12.08
2023-11-07T03:52:23.622Z,12.07
2023-11-07T03:54:32.988Z,12.07
2023-11-07T03:56:43.144Z,12.06
2023-11-07T03:58:52.598Z,12.06
2023-11-07T04:01:02.132Z,12.06
2023-11-07T04:03:11.927Z,12.05
2023-11-07T04:05:22.108Z,12.04
2023-11-07T04:07:32.113Z,12.02
2023-11-07T04:09:41.562Z,12.02
2023-11-07T04:11:52.140Z,12.01
2023-11-07T04:14:01.872Z,12.01
2023-11-07T04:16:12.805Z,12.00
2023-11-07T04:18:22.603Z,11.99
2023-11-07T04:20:32.470Z,11.99
2023-11-07T04:22:42.010Z,11.97
2023-11-07T04:24:51.479Z,11.96
2023-11-07T04:27:01.757Z,11.94
2023-11-07T04:29:11.515Z,11.93
2023-11-07T04:31:21.143Z,11.92
2023-11-07T04:33:30.643Z,11.90
2023-11-07T04:35:41.048Z,11.89
2023-11-07T04:37:50.622Z,11.90
2023-11-07T04:40:00.430Z,11.89
2023-11-07T04:42:11.206Z,11.89
2023-11-07T04:44:21.638Z,11.89
2023-11-07T04:46:31.962Z,11.89
2023-11-07T04:48:41.859Z,11.88
2023-11-07T04:50:51.883Z,11.89
2023-11-07T04:53:05.832Z,11.89
2023-11-07T04:55:16.034Z,11.87
2023-11-07T04:57:26.714Z,11.85
2023-11-07T04:59:36.469Z,11.81
2023-11-07T05:01:49.579Z,11.78
2023-11-07T05:03:59.717Z,11.76
2023-11-07T05:06:11.076Z,11.74
2023-11-07T05:08:20.985Z,11.71
2023-11-07T05:10:31.298Z,11.68
2023-11-07T05:12:41.438Z,11.65
2023-11-07T05:14:51.454Z,11.62
2023-11-07T05:17:01.272Z,11.59
2023-11-07T05:19:11.130Z,11.58
2023-11-07T05:21:20.769Z,11.56
2023-11-07T05:23:30.088Z,11.55
2023-11-07T05:25:39.830Z,11.53
2023-11-07T05:27:49.266Z,11.52
2023-11-07T05:29:58.667Z,11.51
2023-11-07T05:32:08.992Z,11.50
2023-11-07T05:34:19.400Z,11.48
2023-11-07T05:36:29.206Z,11.48
2023-11-07T05:38:38.957Z,11.47
2023-11-07T05:40:48.715Z,11.45
2023-11-07T05:42:58.536Z,11.44
2023-11-07T05:45:10.468Z,11.44
2023-11-07T05:47:18.110Z,11.42
2023-11-07T05:49:27.953Z,11.42
2023-11-07T05:51:37.385Z,11.41
2023-11-07T05:53:47.572Z,11.40
2023-11-07T05:55:57.196Z,11.40
2023-11-07T05:58:08.800Z,11.40
2023-11-07T06:00:21.310Z,11.40
2023-11-07T06:02:31.073Z,11.41
2023-11-07T06:04:41.012Z,11.39
2023-11-07T06:06:50.428Z,11.38
2023-11-07T06:09:00.816Z,11.37
2023-11-07T06:11:10.884Z,11.36
2023-11-07T06:13:20.972Z,11.36
2023-11-07T06:15:30.487Z,11.36
2023-11-07T06:17:40.655Z,11.36
2023-11-07T06:19:50.649Z,11.35
2023-11-07T06:22:00.877Z,11.35
2023-11-07T06:24:11.727Z,11.35
2023-11-07T06:26:22.876Z,11.34
2023-11-07T06:28:32.565Z,11.33
2023-11-07T06:30:42.132Z,11.33
2023-11-07T06:32:52.426Z,11.33
2023-11-07T06:35:01.881Z,11.34
2023-11-07T06:37:11.545Z,11.33
2023-11-07T06:39:25.223Z,11.33
2023-11-07T06:41:35.095Z,11.32
2023-11-07T06:43:47.531Z,11.33
2023-11-07T06:45:57.561Z,11.34
2023-11-07T06:48:08.393Z,11.34
2023-11-07T06:50:18.485Z,11.34
2023-11-07T06:52:28.768Z,11.35
2023-11-07T06:54:38.157Z,11.35
2023-11-07T06:56:48.399Z,11.36
2023-11-07T06:58:57.832Z,11.37
2023-11-07T07:01:07.697Z,11.38
2023-11-07T07:03:17.264Z,11.40
2023-11-07T07:05:27.464Z,11.40
2023-11-07T07:07:37.308Z,11.42
2023-11-07T07:09:46.920Z,11.42
2023-11-07T07:11:57.000Z,11.41
2023-11-07T07:14:06.776Z,11.39
2023-11-07T07:16:17.399Z,11.39
2023-11-07T07:18:26.782Z,11.38
2023-11-07T07:20:38.342Z,11.36
2023-11-07T07:22:48.702Z,11.33
2023-11-07T07:24:58.246Z,11.28
2023-11-07T07:27:09.997Z,11.23
2023-11-07T07:29:19.670Z,11.18
2023-11-07T07:31:29.777Z,11.15
2023-11-07T07:33:43.456Z,11.12
2023-11-07T07:35:53.770Z,11.07
2023-11-07T07:38:05.344Z,11.04
2023-11-07T07:40:17.005Z,10.99
2023-11-07T07:42:27.585Z,10.93
2023-11-07T07:44:37.801Z,10.89
2023-11-07T07:46:52.708Z,10.85
2023-11-07T07:49:03.245Z,10.81
2023-11-07T07:51:15.899Z,10.78
2023-11-07T07:53:26.113Z,10.75
2023-11-07T07:55:38.415Z,10.73
2023-11-07T07:57:48.843Z,10.72
2023-11-07T07:59:59.590Z,10.70
2023-11-07T08:02:10.155Z,10.68
2023-11-07T08:04:19.879Z,10.67
2023-11-07T08:06:31.967Z,10.64
2023-11-07T08:08:42.378Z,10.62
2023-11-07T08:10:57.072Z,10.61
2023-11-07T08:13:08.993Z,10.59
2023-11-07T08:15:19.594Z,10.58
2023-11-07T08:17:29.462Z,10.58
2023-11-07T08:19:39.692Z,10.57
2023-11-07T08:21:50.015Z,10.56
2023-11-07T08:23:59.960Z,10.54
2023-11-07T08:26:09.529Z,10.54
2023-11-07T08:28:19.357Z,10.52
2023-11-07T08:30:30.059Z,10.51
2023-11-07T08:32:39.755Z,10.50
2023-11-07T08:34:49.317Z,10.50
2023-11-07T08:37:07.078Z,10.49
2023-11-07T08:39:26.379Z,10.48
2023-11-07T08:41:35.900Z,10.48
2023-11-07T08:43:45.472Z,10.49
2023-11-07T08:45:56.170Z,10.49
2023-11-07T08:48:09.084Z,10.49
2023-11-07T08:50:19.960Z,10.49
2023-11-07T08:52:29.943Z,10.49
2023-11-07T08:54:39.443Z,10.48
2023-11-07T08:56:51.042Z,10.48
2023-11-07T08:59:00.658Z,10.49
2023-11-07T09:01:11.968Z,10.49
2023-11-07T09:03:22.011Z,10.50
2023-11-07T09:05:32.497Z,10.51
2023-11-07T09:07:42.037Z,10.50
2023-11-07T09:09:51.750Z,10.50
2023-11-07T09:12:02.089Z,10.47
2023-11-07T09:14:12.939Z,10.47
2023-11-07T09:16:22.542Z,10.47
2023-11-07T09:18:32.116Z,10.45
2023-11-07T09:20:42.045Z,10.46
2023-11-07T09:22:52.192Z,10.46
2023-11-07T09:25:01.848Z,10.45
2023-11-07T09:27:11.771Z,10.44
2023-11-07T09:29:21.373Z,10.43
2023-11-07T09:31:31.016Z,10.42
2023-11-07T09:33:40.938Z,10.41
2023-11-07T09:35:51.505Z,10.40
2023-11-07T09:38:01.505Z,10.39
2023-11-07T09:40:14.849Z,10.37
2023-11-07T09:42:24.589Z,10.36
2023-11-07T09:44:34.538Z,10.36
2023-11-07T09:46:44.853Z,10.35
2023-11-07T09:48:55.541Z,10.35
2023-11-07T09:51:09.043Z,10.34
2023-11-07T09:53:22.077Z,10.33
2023-11-07T09:55:33.416Z,10.32
2023-11-07T09:57:48.623Z,10.29
2023-11-07T10:00:00.672Z,10.28
2023-11-07T10:02:11.109Z,10.27
2023-11-07T10:04:22.813Z,10.27
2023-11-07T10:06:32.598Z,10.27
2023-11-07T10:08:44.495Z,10.26
2023-11-07T10:11:13.680Z,10.26
2023-11-07T10:13:23.677Z,10.26
2023-11-07T10:15:33.993Z,10.27
2023-11-07T10:17:58.809Z,10.26
2023-11-07T10:20:13.026Z,10.26
2023-11-07T10:22:22.589Z,10.26
2023-11-07T10:24:47.489Z,10.27
2023-11-07T10:27:00.888Z,10.25
2023-11-07T10:29:18.208Z,10.27
2023-11-07T10:31:29.861Z,10.28
2023-11-07T10:33:39.411Z,10.29
2023-11-07T10:36:00.259Z,10.31
2023-11-07T10:38:16.321Z,10.33
2023-11-07T10:40:26.045Z,10.35
2023-11-07T10:42:36.134Z,10.34
2023-11-07T10:44:46.288Z,10.34
2023-11-07T10:47:00.912Z,10.34
2023-11-07T10:49:32.575Z,10.32
2023-11-07T10:51:54.959Z,10.31
2023-11-07T10:54:11.300Z,10.31
2023-11-07T10:56:37.595Z,10.29
2023-11-07T10:59:13.085Z,10.29
2023-11-07T11:01:36.727Z,10.28
2023-11-07T11:04:10.336Z,10.27
2023-11-07T11:06:26.077Z,10.27
2023-11-07T11:08:40.823Z,10.26
2023-11-07T11:10:55.243Z,10.26
2023-11-07T11:13:26.287Z,10.24
2023-11-07T11:15:37.071Z,10.22
2023-11-07T11:18:04.966Z,10.22
2023-11-07T11:20:27.088Z,10.19
2023-11-07T11:22:43.535Z,10.18
2023-11-07T11:25:21.627Z,10.17
2023-11-07T11:27:39.453Z,10.15
2023-11-07T11:29:51.746Z,10.15
2023-11-07T11:32:33.435Z,10.13
2023-11-07T11:34:45.514Z,10.11
2023-11-07T11:36:59.699Z,10.12
2023-11-07T11:39:47.633Z,10.11
2023-11-07T11:42:11.501Z,10.11
2023-11-07T11:44:22.097Z,10.10
2023-11-07T11:46:44.871Z,10.09
2023-11-07T11:49:10.347Z,10.09
2023-11-07T11:51:38.111Z,10.10
2023-11-07T11:54:09.066Z,10.08
2023-11-07T11:56:19.328Z,10.06
2023-11-07T11:58:39.965Z,10.05
2023-11-07T12:00:54.522Z,10.03
2023-11-07T12:03:16.795Z,10.02
2023-11-07T12:05:27.320Z,10.01
2023-11-07T12:08:33.017Z,9.99
2023-11-07T12:10:59.610Z,9.98
2023-11-07T12:13:24.996Z,9.98
2023-11-07T12:15:55.352Z,9.99
2023-11-07T12:18:05.641Z,10.00
2023-11-07T12:20:17.135Z,10.02
2023-11-07T12:22:28.188Z,10.03
2023-11-07T12:24:38.043Z,10.04
2023-11-07T12:26:47.779Z,10.06
2023-11-07T12:28:57.415Z,10.07
2023-11-07T12:31:20.817Z,10.10
2023-11-07T12:33:44.017Z,10.11
2023-11-07T12:36:00.896Z,10.12
2023-11-07T12:38:30.618Z,10.12
2023-11-07T12:40:52.563Z,10.13
2023-11-07T12:43:02.770Z,10.14
2023-11-07T12:45:13.736Z,10.15
2023-11-07T12:47:26.964Z,10.14
2023-11-07T12:49:45.332Z,10.15
2023-11-07T12:51:54.837Z,10.14
2023-11-07T12:54:10.766Z,10.12
2023-11-07T12:56:23.693Z,10.12
2023-11-07T12:58:36.500Z,10.10
2023-11-07T13:01:02.514Z,10.09
2023-11-07T13:03:13.729Z,10.09
2023-11-07T13:05:24.617Z,10.08
2023-11-07T13:07:35.900Z,10.07
2023-11-07T13:09:45.570Z,10.06
2023-11-07T13:12:16.853Z,10.04
2023-11-07T13:14:26.898Z,10.03
2023-11-07T13:16:36.752Z,10.04
2023-11-07T13:18:50.641Z,10.03
2023-11-07T13:21:00.772Z,10.01
2023-11-07T13:23:13.268Z,9.99
2023-11-07T13:25:26.508Z,10.00
2023-11-07T13:27:40.268Z,10.00
2023-11-07T13:29:59.684Z,10.00
2023-11-07T13:32:10.083Z,9.99
2023-11-07T13:34:20.294Z,10.00
2023-11-07T13:36:50.004Z,9.99
2023-11-07T13:39:04.805Z,9.99
2023-11-07T13:41:35.050Z,9.97
2023-11-07T13:43:44.604Z,9.98
2023-11-07T13:45:55.482Z,9.97
2023-11-07T13:48:21.934Z,9.98
2023-11-07T13:50:33.021Z,9.98
2023-11-07T13:52:45.258Z,9.97
2023-11-07T13:54:55.449Z,9.97
2023-11-07T13:57:05.885Z,9.97
2023-11-07T13:59:18.751Z,9.97
2023-11-07T14:01:29.083Z,9.98
2023-11-07T14:03:40.838Z,9.99
2023-11-07T14:05:50.586Z,10.00
2023-11-07T14:08:03.169Z,10.01
2023-11-07T14:10:19.271Z,10.03
2023-11-07T14:12:29.575Z,10.04
2023-11-07T14:14:44.911Z,10.06
2023-11-07T14:16:52.335Z,10.07
2023-11-07T14:19:07.876Z,10.06
2023-11-07T14:21:32.244Z,10.04
2023-11-07T14:23:48.055Z,10.03
2023-11-07T14:25:58.040Z,10.02
2023-11-07T14:28:28.073Z,10.02
2023-11-07T14:30:45.642Z,10.02
2023-11-07T14:32:58.442Z,10.01
2023-11-07T14:35:28.428Z,10.02
2023-11-07T14:37:38.316Z,10.02
2023-11-07T14:39:50.119Z,10.03
2023-11-07T14:41:59.686Z,10.04
2023-11-07T14:44:10.902Z,10.04
2023-11-07T14:46:23.901Z,10.04
2023-11-07T14:48:37.656Z,10.04
2023-11-07T14:50:47.769Z,10.04
2023-11-07T14:53:08.650Z,10.02
2023-11-07T14:55:19.606Z,10.01
2023-11-07T14:57:39.309Z,10.00
2023-11-07T15:00:02.679Z,9.99
2023-11-07T15:02:27.930Z,10.01
2023-11-07T15:04:41.089Z,10.02
2023-11-07T15:07:11.018Z,10.03
2023-11-07T15:09:21.158Z,10.03
2023-11-07T15:11:35.489Z,10.05
2023-11-07T15:13:57.652Z,10.07
2023-11-07T15:16:17.155Z,10.07
2023-11-07T15:18:27.428Z,10.08
2023-11-07T15:20:41.990Z,10.09
2023-11-07T15:23:03.358Z,10.09
2023-11-07T15:25:18.419Z,10.10
2023-11-07T15:27:26.038Z,10.12
2023-11-07T15:29:39.883Z,10.12
2023-11-07T15:31:54.089Z,10.11
2023-11-07T15:34:04.704Z,10.13
2023-11-07T15:36:14.994Z,10.16
2023-11-07T15:38:24.932Z,10.19
2023-11-07T15:40:55.309Z,10.23
2023-11-07T15:43:24.956Z,10.24
2023-11-07T15:45:40.782Z,10.26
2023-11-07T15:48:11.945Z,10.29
2023-11-07T15:50:22.444Z,10.28
2023-11-07T15:52:32.468Z,10.30
2023-11-07T15:54:42.122Z,10.32
2023-11-07T15:56:51.909Z,10.36
2023-11-07T15:59:05.895Z,10.40
2023-11-07T16:01:16.248Z,10.45
2023-11-07T16:03:26.837Z,10.61
2023-11-07T16:05:57.446Z,10.85
2023-11-07T16:08:18.647Z,10.90
2023-11-07T16:10:28.759Z,10.93
2023-11-07T16:12:43.844Z,11.02
2023-11-07T16:15:16.236Z,11.34
2023-11-07T16:17:28.842Z,11.67
2023-11-07T16:19:41.630Z,12.00
2023-11-07T16:21:55.971Z,12.35
2023-11-07T16:24:26.774Z,12.76
2023-11-07T16:26:47.476Z,13.12
2023-11-07T16:29:09.066Z,13.44
2023-11-07T16:31:22.163Z,13.69
2023-11-07T16:33:32.882Z,13.93
2023-11-07T16:35:42.475Z,14.16
2023-11-07T16:38:13.791Z,14.44
2023-11-07T16:40:24.868Z,14.70
2023-11-07T16:42:34.543Z,14.93
2023-11-07T16:44:47.107Z,15.17
2023-11-07T16:46:56.724Z,15.38
2023-11-07T16:49:17.430Z,15.60
2023-11-07T16:51:34.830Z,15.79
2023-11-07T16:53:44.629Z,15.98
2023-11-07T16:55:58.495Z,16.18
2023-11-07T16:58:19.246Z,16.44
2023-11-07T17:00:48.826Z,16.65
2023-11-07T17:03:07.691Z,16.67
2023-11-07T17:05:19.702Z,16.84
2023-11-07T17:07:29.447Z,16.98
2023-11-07T17:09:59.126Z,16.94
2023-11-07T17:12:28.694Z,16.88
2023-11-07T17:14:48.403Z,16.66
2023-11-07T17:17:18.401Z,16.40
2023-11-07T17:19:50.505Z,16.15
2023-11-07T17:22:00.184Z,15.91
2023-11-07T17:24:11.274Z,15.69
2023-11-07T17:26:30.527Z,15.49
2023-11-07T17:28:43.322Z,15.36
2023-11-07T17:30:53.055Z,15.38
2023-11-07T17:33:15.093Z,15.50
2023-11-07T17:35:44.211Z,15.67
2023-11-07T17:37:54.571Z,15.62
2023-11-07T17:40:09.990Z,15.63
2023-11-07T17:42:22.934Z,15.67
2023-11-07T17:44:43.236Z,15.82
2023-11-07T17:46:52.776Z,16.07
2023-11-07T17:49:06.334Z,16.31
2023-11-07T17:51:22.087Z,16.59
2023-11-07T17:53:53.798Z,16.69
2023-11-07T17:56:06.793Z,16.69
2023-11-07T17:58:16.376Z,16.72
2023-11-07T18:00:35.945Z,16.81
2023-11-07T18:02:55.686Z,16.73
2023-11-07T18:05:06.715Z,16.81
2023-11-07T18:07:31.301Z,16.91
2023-11-07T18:09:52.149Z,17.09
2023-11-07T18:12:22.089Z,17.27
2023-11-07T18:14:35.456Z,17.40
2023-11-07T18:16:48.128Z,17.56
2023-11-07T18:18:59.642Z,17.70
2023-11-07T18:21:20.065Z,17.83
2023-11-07T18:23:30.020Z,17.87
2023-11-07T18:25:49.732Z,17.78
2023-11-07T18:27:59.293Z,17.64
2023-11-07T18:30:28.884Z,17.49
2023-11-07T18:32:41.930Z,17.37
2023-11-07T18:35:13.401Z,17.18
2023-11-07T18:37:24.957Z,17.05
2023-11-07T18:39:37.510Z,16.93
2023-11-07T18:41:52.185Z,16.77
2023-11-07T18:44:04.690Z,16.62
2023-11-07T18:46:17.676Z,16.51
2023-11-07T18:48:47.754Z,16.42
2023-11-07T18:51:06.617Z,16.34
2023-11-07T18:53:22.381Z,16.26
2023-11-07T18:55:53.571Z,16.13
2023-11-07T18:58:06.301Z,16.05
2023-11-07T19:00:18.388Z,15.95
2023-11-07T19:02:48.178Z,15.88
2023-11-07T19:05:04.623Z,15.83
2023-11-07T19:07:25.287Z,15.79
2023-11-07T19:09:55.294Z,15.73
2023-11-07T19:12:04.930Z,15.68
2023-11-07T19:14:18.835Z,15.60
2023-11-07T19:16:49.125Z,15.49
2023-11-07T19:18:58.916Z,15.44
2023-11-07T19:21:29.656Z,15.39
2023-11-07T19:24:00.391Z,15.36
2023-11-07T19:26:21.366Z,15.35
2023-11-07T19:28:32.693Z,15.39
2023-11-07T19:30:51.741Z,15.44
2023-11-07T19:33:13.185Z,15.47
2023-11-07T19:35:33.516Z,15.53
2023-11-07T19:37:57.512Z,15.77
2023-11-07T19:40:24.629Z,16.02
2023-11-07T19:42:46.583Z,16.18
2023-11-07T19:45:00.230Z,16.35
2023-11-07T19:47:30.634Z,16.63
2023-11-07T19:49:49.309Z,16.90
2023-11-07T19:52:13.089Z,17.12
2023-11-07T19:54:26.075Z,17.26
2023-11-07T19:56:55.871Z,17.31
2023-11-07T19:59:05.663Z,17.28
2023-11-07T20:01:35.493Z,17.20
2023-11-07T20:03:45.437Z,17.15
2023-11-07T20:05:56.186Z,17.14
2023-11-07T20:08:06.250Z,17.16
2023-11-07T20:10:16.526Z,17.13
2023-11-07T20:12:37.762Z,17.10
2023-11-07T20:14:51.718Z,17.04
2023-11-07T20:17:21.346Z,16.95
2023-11-07T20:19:31.209Z,16.84
2023-11-07T20:21:40.805Z,16.77
2023-11-07T20:23:50.512Z,16.67
2023-11-07T20:26:00.098Z,16.54
2023-11-07T20:28:12.676Z,16.44
2023-11-07T20:30:25.720Z,16.30
2023-11-07T20:32:56.115Z,16.14
2023-11-07T20:35:16.230Z,15.99
2023-11-07T20:37:47.248Z,15.86
2023-11-07T20:39:57.686Z,15.73
2023-11-07T20:42:13.832Z,15.61
2023-11-07T20:44:31.896Z,15.48
2023-11-07T20:46:45.476Z,15.32
2023-11-07T20:48:58.084Z,15.19
2023-11-07T20:51:08.370Z,15.09
2023-11-07T20:53:21.180Z,14.98
2023-11-07T20:55:41.947Z,14.90
2023-11-07T20:58:04.407Z,14.85
2023-11-07T21:00:27.884Z,14.85
2023-11-07T21:02:57.484Z,15.03
2023-11-07T21:05:07.951Z,15.21
2023-11-07T21:07:17.547Z,15.31
2023-11-07T21:09:27.249Z,15.35
2023-11-07T21:11:37.456Z,15.39
2023-11-07T21:14:07.569Z,15.42
2023-11-07T21:16:17.349Z,15.48
2023-11-07T21:18:27.125Z,15.61
2023-11-07T21:20:37.036Z,15.68
2023-11-07T21:22:46.947Z,15.80
2023-11-07T21:25:02.633Z,16.02
2023-11-07T21:27:12.467Z,16.26
2023-11-07T21:29:22.110Z,16.50
2023-11-07T21:31:32.334Z,16.72
2023-11-07T21:33:43.379Z,16.92
2023-11-07T21:35:52.927Z,17.09
2023-11-07T21:38:02.844Z,17.24
2023-11-07T21:40:14.665Z,17.41
2023-11-07T21:42:27.864Z,17.53
2023-11-07T21:44:37.591Z,17.62
2023-11-07T21:46:47.574Z,17.64
2023-11-07T21:49:01.170Z,17.55
2023-11-07T21:51:21.378Z,17.41
2023-11-07T21:53:34.079Z,17.24
2023-11-07T21:55:44.004Z,17.07
2023-11-07T21:57:56.731Z,16.88
2023-11-07T22:00:16.548Z,16.69
2023-11-07T22:02:26.665Z,16.56
2023-11-07T22:04:36.354Z,16.47
2023-11-07T22:06:58.132Z,16.38
2023-11-07T22:09:06.350Z,16.31
2023-11-07T22:11:19.437Z,16.21
2023-11-07T22:13:49.020Z,16.16
2023-11-07T22:16:21.541Z,16.16
2023-11-07T22:18:34.664Z,16.12
2023-11-07T22:20:48.496Z,16.03
2023-11-07T22:23:18.855Z,15.97
2023-11-07T22:25:32.180Z,15.99
2023-11-07T22:27:42.525Z,16.00
2023-11-07T22:29:55.407Z,16.01
2023-11-07T22:32:14.844Z,16.00
2023-11-07T22:34:24.628Z,15.98
2023-11-07T22:36:35.149Z,15.92
2023-11-07T22:38:48.347Z,15.86
2023-11-07T22:40:58.118Z,15.83
2023-11-07T22:43:08.002Z,15.87
2023-11-07T22:45:18.986Z,15.93
2023-11-07T22:47:29.809Z,16.02
2023-11-07T22:49:39.520Z,16.09
2023-11-07T22:51:59.219Z,16.15
2023-11-07T22:54:13.066Z,16.22
2023-11-07T22:56:42.571Z,16.25
2023-11-07T22:58:51.941Z,16.29
2023-11-07T23:01:04.381Z,16.32
2023-11-07T23:03:34.305Z,16.35
2023-11-07T23:05:47.153Z,16.39
2023-11-07T23:07:57.060Z,16.42
2023-11-07T23:10:16.739Z,16.43
2023-11-07T23:12:26.684Z,16.46
2023-11-07T23:14:36.264Z,16.47
2023-11-07T23:16:49.045Z,16.48
2023-11-07T23:19:10.232Z,16.46
2023-11-07T23:21:41.088Z,16.44
2023-11-07T23:23:50.891Z,16.45
2023-11-07T23:26:11.560Z,16.47
2023-11-07T23:28:21.221Z,16.47
2023-11-07T23:30:30.774Z,16.45
2023-11-07T23:33:01.502Z,16.42
2023-11-07T23:35:14.935Z,16.39
2023-11-07T23:37:34.803Z,16.34
2023-11-07T23:39:47.380Z,16.25
2023-11-07T23:42:06.683Z,16.11
2023-11-07T23:44:27.870Z,15.96
2023-11-07T23:46:40.884Z,15.83
2023-11-07T23:48:51.666Z,15.72
2023-11-07T23:51:02.533Z,15.63
2023-11-07T23:53:32.081Z,15.53
2023-11-07T23:55:54.193Z,15.45
2023-11-07T23:58:24.080Z,15.36
